Seiyo Maru — JMFG — position and weather

sailwx.info

Track history (hours):
 
Tides and Currents Weather Stations Pressure Air Temp Water Temp Dewpoint Dewpoint Depression Visibility Wind Speed Wind Dir Waves Ship Positions

Oceanographic research ship Seiyo Maru (Japan)

Detailed information on ship capabilities available from University of Delaware's Ocean Information Center.

Last reported at 2017-Mar-17 05:21 UTC. Time now 2017-Mar-26 03:23 UTC.
Position N 35°30' E 139°49'.
Warning: this ship's position is 8 days out of date.

Length 36 m; beam 7 m.

Type: Other ship. MMSI: 431431000.

Date/timePositionNaut miles runAvg speedWind from/ knotsBaromVisibWave heightAir tempDewpointWater temp
2017-Mar-17 05:21N 35°30' E 139°49'6 7.2
2017-Mar-17 04:31N 35°26' E 139°44'13 4.4
2017-Mar-17 01:32N 35°12' E 139°45'3 2.9
2017-Mar-17 00:23N 35°09' E 139°45'4 4.0
2017-Mar-16 23:19N 35°05' E 139°45'4 4.5
2017-Mar-16 22:31N 35°06' E 139°41'  
2017-Mar-14 05:31N 35°07' E 139°40'7 7.1
2017-Mar-14 04:33N 35°12' E 139°45'10 8.1
2017-Mar-14 03:19N 35°22' E 139°42'13 4.9
2017-Mar-14 00:33N 35°35' E 139°48'  
2017-Mar-08 06:09N 35°38' E 139°46'  
Track history (hours):
 
Tides and Currents Weather Stations Pressure Air Temp Water Temp Dewpoint Dewpoint Depression Visibility Wind Speed Wind Dir Waves Ship Positions

Oceanographic research ship Seiyo Maru (Japan)

Detailed information on ship capabilities available from University of Delaware's Ocean Information Center.

Last reported at 2017-Mar-17 05:21 UTC. Time now 2017-Mar-26 03:23 UTC.
Position N 35°30' E 139°49'.
Warning: this ship's position is 8 days out of date.

Length 36 m; beam 7 m.

Type: Other ship. MMSI: 431431000.

Date/timePositionNaut miles runAvg speedWind from/ knotsBaromVisibWave heightAir tempDewpointWater temp
2017-Mar-17 05:21N 35°30' E 139°49'6 7.2
2017-Mar-17 04:31N 35°26' E 139°44'13 4.4
2017-Mar-17 01:32N 35°12' E 139°45'3 2.9
2017-Mar-17 00:23N 35°09' E 139°45'4 4.0
2017-Mar-16 23:19N 35°05' E 139°45'4 4.5
2017-Mar-16 22:31N 35°06' E 139°41'  
2017-Mar-14 05:31N 35°07' E 139°40'7 7.1
2017-Mar-14 04:33N 35°12' E 139°45'10 8.1
2017-Mar-14 03:19N 35°22' E 139°42'13 4.9
2017-Mar-14 00:33N 35°35' E 139°48'  
2017-Mar-08 06:09N 35°38' E 139°46'  

Dump ship's entire track history